Time;durP1;ratioP1;P1;durP2;ratioP2;P2;SDS_P1;SDS_P2;PMS_P1;PMS_P2;Temp;Humidity;BMP_temperature;BMP_pressure;BME280_temperature;BME280_humidity;BME280_pressure;Samples;Min_cycle;Max_cycle;Signal;HPM_P1;HPM_P2
2022/10/07 00:00:41;;;;;;;;;;;10.10;99.90;;;;;;5031591;28;19925;-72
2022/10/07 00:03:13;;;;;;;;;;;10.10;99.90;;;;;;5032856;28;20296;-71
2022/10/07 00:05:44;;;;;;;;;;;10.10;99.90;;;;;;5015535;28;19980;-71
2022/10/07 00:08:16;;;;;;;;;;;10.10;99.90;;;;;;5019619;28;19996;-70
2022/10/07 00:10:47;;;;;;;;;;;10.00;99.90;;;;;;5008710;28;19980;-71
2022/10/07 00:13:19;;;;;;;;;;;10.00;99.90;;;;;;5025471;28;19963;-71
2022/10/07 00:15:51;;;;;;;;;;;9.90;99.90;;;;;;5024290;28;19929;-73
2022/10/07 00:18:22;;;;;;;;;;;9.90;99.90;;;;;;5030632;28;20327;-71
2022/10/07 00:20:54;;;;;;;;;;;9.90;99.90;;;;;;5034802;28;19933;-71
2022/10/07 00:23:25;;;;;;;;;;;9.90;99.90;;;;;;4993236;28;19925;-72
2022/10/07 00:26:05;;;;;;;;;;;9.90;99.90;;;;;;5024245;28;20383;-71
2022/10/07 00:28:37;;;;;;;;;;;9.80;99.90;;;;;;5019296;28;19925;-70
2022/10/07 00:31:11;;;;;;;;;;;9.80;99.90;;;;;;5001478;28;19972;-71
2022/10/07 00:33:43;;;;;;;;;;;9.80;99.90;;;;;;5013999;28;19925;-71
2022/10/07 00:36:16;;;;;;;;;;;9.80;99.90;;;;;;5006763;28;19925;-72
2022/10/07 00:38:57;;;;;;;;;;;9.80;99.90;;;;;;5018843;28;19925;-70
2022/10/07 00:41:31;;;;;;;;;;;9.80;99.90;;;;;;5026670;28;19925;-71
2022/10/07 00:44:22;;;;;;;;;;;9.80;99.90;;;;;;5030203;28;19949;-72
2022/10/07 00:46:54;;;;;;;;;;;9.80;99.90;;;;;;5043480;28;19932;-72
2022/10/07 00:49:29;;;;;;;;;;;9.80;99.90;;;;;;5012395;28;19925;-72
2022/10/07 00:52:00;;;;;;;;;;;9.80;99.90;;;;;;5024956;28;20296;-71
2022/10/07 00:54:32;;;;;;;;;;;9.80;99.90;;;;;;5001061;28;19935;-71
2022/10/07 00:57:04;;;;;;;;;;;9.80;99.90;;;;;;4997130;28;20024;-71
2022/10/07 00:59:38;;;;;;;;;;;9.80;99.90;;;;;;5023458;28;20295;-71
2022/10/07 01:02:10;;;;;;;;;;;9.70;99.90;;;;;;5023612;28;19983;-71
2022/10/07 01:04:42;;;;;;;;;;;9.70;99.90;;;;;;5031197;28;19976;-72
2022/10/07 01:07:19;;;;;;;;;;;9.70;99.90;;;;;;4988122;28;19929;-71
2022/10/07 01:09:52;;;;;;;;;;;9.60;99.90;;;;;;5000039;28;19930;-72
2022/10/07 01:12:39;;;;;;;;;;;9.60;99.90;;;;;;5013330;28;19933;-70
2022/10/07 01:15:29;;;;;;;;;;;9.50;99.90;;;;;;5032046;28;20016;-72
2022/10/07 01:18:06;;;;;;;;;;;9.40;99.90;;;;;;4997137;28;19972;-72
2022/10/07 01:20:58;;;;;;;;;;;9.40;99.90;;;;;;5023694;28;19925;-71
2022/10/07 01:23:43;;;;;;;;;;;9.30;99.90;;;;;;4999581;28;19975;-72
2022/10/07 01:26:24;;;;;;;;;;;9.30;99.90;;;;;;5006050;28;19925;-71
2022/10/07 01:28:55;;;;;;;;;;;9.30;99.90;;;;;;4996514;28;19926;-71
2022/10/07 01:31:32;;;;;;;;;;;9.30;99.90;;;;;;4995629;28;19926;-71
2022/10/07 01:34:05;;;;;;;;;;;9.30;99.90;;;;;;5007406;28;19925;-71
2022/10/07 01:36:37;;;;;;;;;;;9.30;99.90;;;;;;5015998;28;19980;-72
2022/10/07 01:39:11;;;;;;;;;;;9.20;99.90;;;;;;4994119;28;20012;-71
2022/10/07 01:41:42;;;;;;;;;;;9.20;99.90;;;;;;5021958;28;19925;-72
2022/10/07 01:44:14;;;;;;;;;;;9.20;99.90;;;;;;5018797;28;19972;-72
2022/10/07 01:46:46;;;;;;;;;;;9.20;99.90;;;;;;5020870;28;19929;-73
2022/10/07 01:49:18;;;;;;;;;;;9.10;99.90;;;;;;5020477;28;20484;-72
2022/10/07 01:51:59;;;;;;;;;;;9.20;99.90;;;;;;5022700;28;19925;-73
2022/10/07 01:54:59;;;;;;;;;;;9.20;99.90;;;;;;5032866;28;20020;-72
2022/10/07 01:58:05;;;;;;;;;;;9.20;99.90;;;;;;4986076;28;20008;-72
2022/10/07 02:00:40;;;;;;;;;;;9.20;99.90;;;;;;4967301;28;19926;-72
2022/10/07 02:03:23;;;;;;;;;;;9.30;99.90;;;;;;4986883;28;20024;-73
2022/10/07 02:06:10;;;;;;;;;;;9.30;99.90;;;;;;5003004;28;19980;-73
2022/10/07 02:08:48;;;;;;;;;;;9.30;99.90;;;;;;5002487;28;19925;-73
2022/10/07 02:11:26;;;;;;;;;;;9.30;99.90;;;;;;5026841;28;19968;-72
2022/10/07 02:14:10;;;;;;;;;;;9.30;99.90;;;;;;4997798;28;20295;-72
2022/10/07 02:16:50;;;;;;;;;;;9.30;99.90;;;;;;5002165;28;19929;-72
2022/10/07 02:19:23;;;;;;;;;;;9.30;99.90;;;;;;5015520;28;19996;-73
2022/10/07 02:21:56;;;;;;;;;;;9.30;99.90;;;;;;4996361;28;19929;-73
2022/10/07 02:24:31;;;;;;;;;;;9.30;99.90;;;;;;5007604;28;19972;-72
2022/10/07 02:27:07;;;;;;;;;;;9.40;99.90;;;;;;5009760;28;20342;-72
2022/10/07 02:29:35;;;;;;;;;;;9.30;99.90;;;;;;5016361;28;19984;-73
2022/10/07 02:32:10;;;;;;;;;;;9.30;99.90;;;;;;5000464;28;20558;-72
2022/10/07 02:34:42;;;;;;;;;;;9.30;99.90;;;;;;5025304;28;20346;-72
2022/10/07 02:37:18;;;;;;;;;;;9.40;99.90;;;;;;4995709;28;19925;-73
2022/10/07 02:39:51;;;;;;;;;;;9.40;99.90;;;;;;5022836;28;19930;-73
2022/10/07 02:42:33;;;;;;;;;;;9.50;99.90;;;;;;5003181;28;19979;-73
2022/10/07 02:45:05;;;;;;;;;;;9.50;99.90;;;;;;5022118;28;19925;-72
2022/10/07 02:47:40;;;;;;;;;;;9.50;99.90;;;;;;5009843;28;19980;-72
2022/10/07 02:50:13;;;;;;;;;;;9.60;99.90;;;;;;5006925;28;19984;-72
2022/10/07 02:52:45;;;;;;;;;;;9.60;99.90;;;;;;5002758;28;20414;-73
2022/10/07 02:55:21;;;;;;;;;;;9.70;99.90;;;;;;5003699;28;20012;-73
2022/10/07 02:57:55;;;;;;;;;;;9.70;99.90;;;;;;5004243;28;19925;-72
2022/10/07 03:00:29;;;;;;;;;;;9.70;99.90;;;;;;5005294;28;20011;-73
2022/10/07 03:03:03;;;;;;;;;;;9.70;99.90;;;;;;5015382;28;19932;-73
2022/10/07 03:05:50;;;;;;;;;;;9.80;99.90;;;;;;5004264;28;19929;-73
2022/10/07 03:08:23;;;;;;;;;;;9.80;99.90;;;;;;5002238;28;19932;-72
2022/10/07 03:10:55;;;;;;;;;;;9.80;99.90;;;;;;5012181;28;19940;-73
2022/10/07 03:13:28;;;;;;;;;;;9.80;99.90;;;;;;5016906;28;19929;-73
2022/10/07 03:16:04;;;;;;;;;;;9.90;99.90;;;;;;5013370;28;19929;-72
2022/10/07 03:18:35;;;;;;;;;;;9.90;99.90;;;;;;5020905;28;20400;-72
2022/10/07 03:21:22;;;;;;;;;;;10.00;99.90;;;;;;5012516;28;20101;-72
2022/10/07 03:23:56;;;;;;;;;;;10.00;99.90;;;;;;5029540;28;20356;-72
2022/10/07 03:26:29;;;;;;;;;;;9.90;99.90;;;;;;5009781;28;19929;-72
2022/10/07 03:29:02;;;;;;;;;;;9.90;99.90;;;;;;5018266;28;20392;-72
2022/10/07 03:31:34;;;;;;;;;;;10.00;99.90;;;;;;5002037;28;19932;-73
2022/10/07 03:34:06;;;;;;;;;;;10.00;99.90;;;;;;5012667;28;19932;-72
2022/10/07 03:36:41;;;;;;;;;;;10.00;99.90;;;;;;5005375;28;20319;-73
2022/10/07 03:39:12;;;;;;;;;;;10.00;99.90;;;;;;5014472;28;19952;-72
2022/10/07 03:41:44;;;;;;;;;;;9.90;99.90;;;;;;5014123;28;19933;-72
2022/10/07 03:44:18;;;;;;;;;;;10.00;99.90;;;;;;5006629;28;19936;-72
2022/10/07 03:46:48;;;;;;;;;;;10.00;99.90;;;;;;5024567;28;19929;-72
2022/10/07 03:49:23;;;;;;;;;;;9.90;99.90;;;;;;5009304;28;19926;-72
2022/10/07 03:51:55;;;;;;;;;;;10.00;99.90;;;;;;5002649;28;20319;-72
2022/10/07 03:54:27;;;;;;;;;;;10.00;99.90;;;;;;5006967;28;19933;-73
2022/10/07 03:56:59;;;;;;;;;;;10.00;99.90;;;;;;5013168;28;19929;-72
2022/10/07 03:59:31;;;;;;;;;;;10.00;99.90;;;;;;5005803;28;20015;-73
2022/10/07 04:02:03;;;;;;;;;;;10.00;99.90;;;;;;5031091;28;19924;-73
2022/10/07 04:04:35;;;;;;;;;;;10.10;99.90;;;;;;5036876;28;19936;-73
2022/10/07 04:07:07;;;;;;;;;;;10.10;99.90;;;;;;5010258;28;19930;-73
2022/10/07 04:09:34;;;;;;;;;;;10.10;99.90;;;;;;5010846;28;20643;-73
2022/10/07 04:12:00;;;;;;;;;;;10.10;99.90;;;;;;5003024;28;19929;-72
2022/10/07 04:14:32;;;;;;;;;;;10.10;99.90;;;;;;5014289;28;19929;-72
2022/10/07 04:17:04;;;;;;;;;;;10.10;99.90;;;;;;5029016;28;19940;-71
2022/10/07 04:19:36;;;;;;;;;;;10.10;99.90;;;;;;4994914;28;20027;-72
2022/10/07 04:22:08;;;;;;;;;;;10.10;99.90;;;;;;5027262;28;19936;-72
2022/10/07 04:24:39;;;;;;;;;;;10.10;99.90;;;;;;5007995;28;19929;-72
2022/10/07 04:27:12;;;;;;;;;;;10.20;99.90;;;;;;5022158;28;19925;-72
2022/10/07 04:29:44;;;;;;;;;;;10.10;99.90;;;;;;5017237;28;19988;-72
2022/10/07 04:32:18;;;;;;;;;;;10.20;99.90;;;;;;4997616;28;20303;-72
2022/10/07 04:34:50;;;;;;;;;;;10.20;99.90;;;;;;5007327;28;20032;-72
2022/10/07 04:37:22;;;;;;;;;;;10.10;99.90;;;;;;4992515;28;19929;-71
2022/10/07 04:39:54;;;;;;;;;;;10.20;99.90;;;;;;5000438;28;20028;-72
2022/10/07 04:45:16;;;;;;;;;;;10.20;99.90;;;;;;5009498;28;19933;-72
2022/10/07 04:47:48;;;;;;;;;;;10.20;99.90;;;;;;5000980;28;20411;-73
2022/10/07 04:50:15;;;;;;;;;;;10.20;99.90;;;;;;5017953;28;20376;-72
2022/10/07 04:52:47;;;;;;;;;;;10.30;99.90;;;;;;5021189;28;20020;-72
2022/10/07 04:55:18;;;;;;;;;;;10.30;99.90;;;;;;5007309;28;19933;-72
2022/10/07 04:57:51;;;;;;;;;;;10.30;99.90;;;;;;5001259;28;20017;-72
2022/10/07 05:00:24;;;;;;;;;;;10.30;99.90;;;;;;5001209;28;19937;-72
2022/10/07 05:02:56;;;;;;;;;;;10.30;99.90;;;;;;5004402;28;20392;-72
2022/10/07 05:05:28;;;;;;;;;;;10.30;99.90;;;;;;5012080;28;19929;-72
2022/10/07 05:08:00;;;;;;;;;;;10.30;99.90;;;;;;5008733;28;19976;-72
2022/10/07 05:10:37;;;;;;;;;;;10.30;99.90;;;;;;5006597;28;19935;-73
2022/10/07 05:13:11;;;;;;;;;;;10.30;99.90;;;;;;5020359;28;19925;-73
2022/10/07 05:15:47;;;;;;;;;;;10.30;99.90;;;;;;5005744;28;19934;-72
2022/10/07 05:18:19;;;;;;;;;;;10.20;99.90;;;;;;5017358;28;19933;-73
2022/10/07 05:20:54;;;;;;;;;;;10.20;99.90;;;;;;5021455;28;20008;-72
2022/10/07 05:23:24;;;;;;;;;;;10.20;99.90;;;;;;5005287;28;19930;-72
2022/10/07 05:26:00;;;;;;;;;;;10.20;99.90;;;;;;5014500;28;20396;-72
2022/10/07 05:28:34;;;;;;;;;;;10.20;99.90;;;;;;5004906;28;19925;-72
2022/10/07 05:31:10;;;;;;;;;;;10.30;99.90;;;;;;5005347;28;19926;-72
2022/10/07 05:33:48;;;;;;;;;;;10.20;99.90;;;;;;5003194;28;19929;-72
2022/10/07 05:36:22;;;;;;;;;;;10.30;99.90;;;;;;4996588;28;19925;-73
2022/10/07 05:38:57;;;;;;;;;;;10.30;99.90;;;;;;5008638;28;20140;-72
2022/10/07 05:41:44;;;;;;;;;;;10.30;99.90;;;;;;5005664;28;19938;-73
2022/10/07 05:44:20;;;;;;;;;;;10.30;99.90;;;;;;5006034;28;19933;-72
2022/10/07 05:46:55;;;;;;;;;;;10.30;99.90;;;;;;5007031;28;19933;-72
2022/10/07 05:49:22;;;;;;;;;;;10.30;99.90;;;;;;5022635;28;19933;-72
2022/10/07 05:51:54;;;;;;;;;;;10.40;99.90;;;;;;5010013;28;19929;-72
2022/10/07 05:54:26;;;;;;;;;;;10.40;99.90;;;;;;5019943;28;19933;-72
2022/10/07 05:56:58;;;;;;;;;;;10.40;99.90;;;;;;5020835;28;19971;-71
2022/10/07 05:59:30;;;;;;;;;;;10.40;99.90;;;;;;4999917;28;19933;-72
2022/10/07 06:02:02;;;;;;;;;;;10.40;99.90;;;;;;4991813;28;19933;-72
2022/10/07 06:04:34;;;;;;;;;;;10.50;99.90;;;;;;4992707;28;19925;-73
2022/10/07 06:07:06;;;;;;;;;;;10.50;99.90;;;;;;5010358;28;20359;-72
2022/10/07 06:15:19;;;;;;;;;;;10.60;99.90;;;;;;5012399;28;19932;-72
2022/10/07 06:17:51;;;;;;;;;;;10.60;99.90;;;;;;5008131;28;19929;-73
2022/10/07 06:20:21;;;;;;;;;;;10.70;99.90;;;;;;5017511;28;20358;-73
2022/10/07 06:22:57;;;;;;;;;;;10.70;99.90;;;;;;5018749;28;19925;-72
2022/10/07 06:25:25;;;;;;;;;;;10.70;99.90;;;;;;5009658;28;19925;-73
2022/10/07 06:27:57;;;;;;;;;;;10.80;99.90;;;;;;5023580;28;19929;-73
2022/10/07 06:30:29;;;;;;;;;;;10.80;99.90;;;;;;4996559;28;19929;-74
2022/10/07 06:33:01;;;;;;;;;;;10.80;99.90;;;;;;5001819;28;19979;-72
2022/10/07 06:35:33;;;;;;;;;;;10.90;99.90;;;;;;5022703;28;19936;-73
2022/10/07 06:38:05;;;;;;;;;;;10.90;99.90;;;;;;5019540;28;19948;-73
2022/10/07 06:40:37;;;;;;;;;;;11.00;99.90;;;;;;5003626;28;19929;-73
2022/10/07 06:43:08;;;;;;;;;;;11.00;99.90;;;;;;5001137;28;19925;-72
2022/10/07 06:45:44;;;;;;;;;;;11.00;99.90;;;;;;5005958;28;19932;-73
2022/10/07 06:48:16;;;;;;;;;;;11.10;99.90;;;;;;5007816;28;20377;-73
2022/10/07 06:50:50;;;;;;;;;;;11.10;99.90;;;;;;4995978;28;20427;-73
2022/10/07 06:53:17;;;;;;;;;;;11.10;99.90;;;;;;5028608;28;20311;-73
2022/10/07 06:55:53;;;;;;;;;;;11.20;99.90;;;;;;5023540;28;19952;-73
2022/10/07 06:58:25;;;;;;;;;;;11.20;99.90;;;;;;5002640;28;20339;-73
2022/10/07 07:00:58;;;;;;;;;;;11.20;99.90;;;;;;5005238;28;19929;-73
2022/10/07 07:03:31;;;;;;;;;;;11.20;99.90;;;;;;5006474;28;19925;-72
2022/10/07 07:06:06;;;;;;;;;;;11.20;99.90;;;;;;5004077;28;20446;-73
2022/10/07 07:08:40;;;;;;;;;;;11.30;99.90;;;;;;4997661;28;20440;-73
2022/10/07 07:14:24;;;;;;;;;;;11.30;99.90;;;;;;5047009;28;19932;-72
2022/10/07 07:17:00;;;;;;;;;;;11.30;99.90;;;;;;5032743;28;19959;-73
2022/10/07 07:19:32;;;;;;;;;;;11.30;99.90;;;;;;5044156;28;19936;-73
2022/10/07 07:22:04;;;;;;;;;;;11.40;99.90;;;;;;5029115;28;19936;-73
2022/10/07 07:24:37;;;;;;;;;;;11.40;99.90;;;;;;5010033;28;19956;-73
2022/10/07 07:27:11;;;;;;;;;;;11.50;99.90;;;;;;5029145;28;20387;-73
2022/10/07 07:29:43;;;;;;;;;;;11.60;99.90;;;;;;5027909;28;19925;-73
2022/10/07 07:32:15;;;;;;;;;;;11.70;99.90;;;;;;5012042;28;19976;-73
2022/10/07 07:34:47;;;;;;;;;;;11.70;99.90;;;;;;5012242;28;19929;-73
2022/10/07 07:37:20;;;;;;;;;;;11.80;99.90;;;;;;5010734;28;19940;-72
2022/10/07 07:39:54;;;;;;;;;;;11.90;99.90;;;;;;5011449;28;20023;-73
2022/10/07 07:42:26;;;;;;;;;;;11.90;99.90;;;;;;5010791;28;19925;-72
2022/10/07 07:44:58;;;;;;;;;;;12.00;99.90;;;;;;5011855;28;19926;-72
2022/10/07 07:47:32;;;;;;;;;;;12.10;99.90;;;;;;4999263;28;19933;-72
2022/10/07 07:50:05;;;;;;;;;;;12.10;99.90;;;;;;5007940;28;20252;-71
2022/10/07 07:52:36;;;;;;;;;;;12.20;99.90;;;;;;5013067;28;19976;-71
2022/10/07 07:55:08;;;;;;;;;;;12.20;99.90;;;;;;5006832;28;19925;-72
2022/10/07 07:57:41;;;;;;;;;;;12.30;99.90;;;;;;5013643;28;19925;-72
2022/10/07 08:00:15;;;;;;;;;;;12.30;99.90;;;;;;5017793;28;20020;-72
2022/10/07 08:02:58;;;;;;;;;;;12.40;99.90;;;;;;5011304;28;19985;-73
2022/10/07 08:05:25;;;;;;;;;;;12.50;99.90;;;;;;5029028;28;19924;-71
2022/10/07 08:07:58;;;;;;;;;;;12.60;99.90;;;;;;5027318;28;20016;-72
2022/10/07 08:10:30;;;;;;;;;;;12.60;99.90;;;;;;4991026;28;19980;-72
2022/10/07 08:13:02;;;;;;;;;;;12.70;99.90;;;;;;5016165;28;19929;-72
2022/10/07 08:15:33;;;;;;;;;;;12.70;99.90;;;;;;5018043;28;20352;-71
2022/10/07 08:18:06;;;;;;;;;;;12.80;99.90;;;;;;5011229;28;19929;-72
2022/10/07 08:20:38;;;;;;;;;;;12.90;99.90;;;;;;5000431;28;19980;-72
2022/10/07 08:23:10;;;;;;;;;;;12.90;99.90;;;;;;5026771;28;19973;-72
2022/10/07 08:25:36;;;;;;;;;;;12.90;99.90;;;;;;5015245;28;20343;-72
2022/10/07 08:28:05;;;;;;;;;;;13.00;99.90;;;;;;5013558;28;19925;-72
2022/10/07 08:30:37;;;;;;;;;;;13.00;99.90;;;;;;5012273;28;19961;-72
2022/10/07 08:33:08;;;;;;;;;;;13.10;99.90;;;;;;4998017;28;19929;-71
2022/10/07 08:35:40;;;;;;;;;;;13.10;99.90;;;;;;5034809;28;19995;-72
2022/10/07 08:38:11;;;;;;;;;;;13.10;99.90;;;;;;4999622;28;19953;-71
2022/10/07 08:40:50;;;;;;;;;;;13.20;99.90;;;;;;5014969;28;19949;-71
2022/10/07 08:43:22;;;;;;;;;;;13.20;99.90;;;;;;5029418;28;19931;-71
2022/10/07 08:45:54;;;;;;;;;;;13.30;99.90;;;;;;5033473;28;19925;-71
2022/10/07 08:48:29;;;;;;;;;;;13.30;99.90;;;;;;5034409;28;19979;-72
2022/10/07 08:51:20;;;;;;;;;;;13.30;99.90;;;;;;5009547;28;19925;-71
2022/10/07 08:53:54;;;;;;;;;;;13.40;99.90;;;;;;5019348;28;19932;-72
2022/10/07 08:56:28;;;;;;;;;;;13.50;99.90;;;;;;5004261;28;19932;-72
2022/10/07 08:59:02;;;;;;;;;;;13.60;99.90;;;;;;5016503;28;19932;-72
2022/10/07 09:01:46;;;;;;;;;;;13.70;99.90;;;;;;5003738;28;19995;-72
2022/10/07 09:04:21;;;;;;;;;;;13.70;99.90;;;;;;5018201;28;19925;-72
2022/10/07 09:06:55;;;;;;;;;;;13.80;99.90;;;;;;5022668;28;20023;-72
2022/10/07 09:09:32;;;;;;;;;;;13.80;99.90;;;;;;5014501;28;19964;-71
2022/10/07 09:12:07;;;;;;;;;;;13.80;99.90;;;;;;5032465;28;19925;-72
2022/10/07 09:14:40;;;;;;;;;;;13.90;99.90;;;;;;5022586;28;19988;-71
2022/10/07 09:17:27;;;;;;;;;;;13.90;99.90;;;;;;5022248;28;20308;-72
2022/10/07 09:20:01;;;;;;;;;;;14.00;99.90;;;;;;5014414;28;19925;-73
2022/10/07 09:22:36;;;;;;;;;;;14.10;99.90;;;;;;5028448;28;19932;-73
2022/10/07 09:25:10;;;;;;;;;;;14.20;99.90;;;;;;5025137;28;19980;-71
2022/10/07 09:27:42;;;;;;;;;;;14.30;99.90;;;;;;4997909;28;19933;-72
2022/10/07 09:30:14;;;;;;;;;;;14.30;99.90;;;;;;5019533;28;19975;-73
2022/10/07 09:32:42;;;;;;;;;;;14.40;99.90;;;;;;5016278;28;19925;-72
2022/10/07 09:35:20;;;;;;;;;;;14.60;99.90;;;;;;5033444;28;19925;-72
2022/10/07 09:38:03;;;;;;;;;;;14.60;99.90;;;;;;5013125;28;19980;-72
2022/10/07 09:41:13;;;;;;;;;;;14.70;99.90;;;;;;5014183;28;19992;-73
2022/10/07 09:43:32;;;;;;;;;;;14.80;99.90;;;;;;5026014;28;19984;-73
2022/10/07 09:46:23;;;;;;;;;;;15.00;99.90;;;;;;5022287;28;20282;-72
2022/10/07 09:48:55;;;;;;;;;;;15.10;99.90;;;;;;5032718;28;20395;-73
2022/10/07 09:51:28;;;;;;;;;;;15.10;99.90;;;;;;5026089;28;19933;-72
2022/10/07 09:54:19;;;;;;;;;;;15.20;99.90;;;;;;5031834;28;19925;-73
2022/10/07 09:56:53;;;;;;;;;;;15.30;99.90;;;;;;5006665;28;19956;-72
2022/10/07 09:59:26;;;;;;;;;;;15.30;99.90;;;;;;5009282;28;19925;-72
2022/10/07 10:02:14;;;;;;;;;;;15.40;99.90;;;;;;5028073;28;20352;-73
2022/10/07 10:04:46;;;;;;;;;;;15.50;99.90;;;;;;5027904;28;20411;-71
2022/10/07 10:07:35;;;;;;;;;;;15.50;99.90;;;;;;5032822;28;19929;-72
2022/10/07 10:10:17;;;;;;;;;;;15.60;99.90;;;;;;5033089;28;19925;-72
2022/10/07 10:12:52;;;;;;;;;;;15.70;99.90;;;;;;5018469;28;19949;-72
2022/10/07 10:15:42;;;;;;;;;;;15.70;99.90;;;;;;5028864;28;19925;-72
2022/10/07 10:18:23;;;;;;;;;;;15.70;99.90;;;;;;5022266;28;19980;-71
2022/10/07 10:20:55;;;;;;;;;;;15.60;99.90;;;;;;5017010;28;19929;-72
2022/10/07 10:23:29;;;;;;;;;;;15.50;99.90;;;;;;5013281;28;19933;-71
2022/10/07 10:26:25;;;;;;;;;;;15.50;99.90;;;;;;5013196;28;19925;-72
2022/10/07 10:28:59;;;;;;;;;;;15.50;99.90;;;;;;5023191;28;20376;-71
2022/10/07 10:31:31;;;;;;;;;;;15.60;99.90;;;;;;5028607;28;19925;-72
2022/10/07 10:34:08;;;;;;;;;;;15.60;99.90;;;;;;5023375;28;19933;-72
2022/10/07 10:36:44;;;;;;;;;;;15.70;99.90;;;;;;4995780;28;20296;-72
2022/10/07 10:39:21;;;;;;;;;;;15.70;99.90;;;;;;5013873;28;19925;-71
2022/10/07 10:41:59;;;;;;;;;;;15.70;99.90;;;;;;4985869;28;19972;-72
2022/10/07 10:44:49;;;;;;;;;;;15.70;99.90;;;;;;5029622;28;19925;-72
2022/10/07 10:47:21;;;;;;;;;;;15.80;99.90;;;;;;5023506;28;19925;-72
2022/10/07 10:49:55;;;;;;;;;;;15.90;99.90;;;;;;5007530;28;19925;-72
2022/10/07 10:52:44;;;;;;;;;;;16.00;99.90;;;;;;5003658;28;19976;-72
2022/10/07 10:55:34;;;;;;;;;;;16.10;99.90;;;;;;5003077;28;19926;-71
2022/10/07 10:58:44;;;;;;;;;;;16.10;99.90;;;;;;4999729;28;19925;-72
2022/10/07 11:01:22;;;;;;;;;;;16.10;99.90;;;;;;4924890;29;19926;-72
2022/10/07 11:04:09;;;;;;;;;;;16.20;99.90;;;;;;4935272;29;20342;-72
2022/10/07 11:06:37;;;;;;;;;;;16.30;99.90;;;;;;4965776;28;19972;-72
2022/10/07 11:09:15;;;;;;;;;;;16.30;99.90;;;;;;4996294;28;20455;-72
2022/10/07 11:11:47;;;;;;;;;;;16.20;99.90;;;;;;5017022;28;19925;-71
2022/10/07 11:14:21;;;;;;;;;;;16.20;99.90;;;;;;4995850;28;19965;-72
2022/10/07 11:16:55;;;;;;;;;;;16.20;99.90;;;;;;5008371;28;20384;-72
2022/10/07 11:19:34;;;;;;;;;;;16.20;99.90;;;;;;5011036;28;19925;-72
2022/10/07 11:22:17;;;;;;;;;;;16.20;99.90;;;;;;4990919;28;19926;-72
2022/10/07 11:24:53;;;;;;;;;;;16.30;99.90;;;;;;5031021;28;19975;-72
2022/10/07 11:27:29;;;;;;;;;;;16.40;99.90;;;;;;5009838;28;20380;-72
2022/10/07 11:30:07;;;;;;;;;;;16.40;99.90;;;;;;5010431;28;19958;-72
2022/10/07 11:32:57;;;;;;;;;;;16.30;99.90;;;;;;5032467;28;19929;-72
2022/10/07 11:35:35;;;;;;;;;;;16.30;99.90;;;;;;5023726;28;19980;-71
2022/10/07 11:38:11;;;;;;;;;;;16.20;99.90;;;;;;5020245;28;19925;-72
2022/10/07 11:40:46;;;;;;;;;;;16.20;99.90;;;;;;5014967;28;19956;-72
2022/10/07 11:43:34;;;;;;;;;;;16.10;99.90;;;;;;5027644;28;19925;-72
2022/10/07 11:46:09;;;;;;;;;;;16.10;99.90;;;;;;5000751;28;19936;-73
2022/10/07 11:48:48;;;;;;;;;;;16.10;99.90;;;;;;5022330;28;19925;-72
2022/10/07 11:51:27;;;;;;;;;;;16.10;99.90;;;;;;4998913;28;19956;-71
2022/10/07 11:54:01;;;;;;;;;;;16.00;99.90;;;;;;5031872;28;19929;-73
2022/10/07 11:56:38;;;;;;;;;;;16.00;99.90;;;;;;5015293;28;19925;-71
2022/10/07 11:59:25;;;;;;;;;;;16.10;99.90;;;;;;5015639;28;19932;-72
2022/10/07 12:01:56;;;;;;;;;;;16.00;99.90;;;;;;5017605;28;20281;-73
2022/10/07 12:04:28;;;;;;;;;;;16.10;99.90;;;;;;5028442;28;20339;-71
2022/10/07 12:07:18;;;;;;;;;;;16.10;99.90;;;;;;5007016;28;19929;-72
2022/10/07 12:09:59;;;;;;;;;;;16.10;99.90;;;;;;5016608;28;20347;-72
2022/10/07 12:12:45;;;;;;;;;;;16.10;99.90;;;;;;5027449;28;19964;-72
2022/10/07 12:15:22;;;;;;;;;;;16.10;99.90;;;;;;5024617;28;20649;-72
2022/10/07 12:18:15;;;;;;;;;;;16.10;99.90;;;;;;5020440;28;21301;-72
2022/10/07 12:20:49;;;;;;;;;;;16.00;99.90;;;;;;5024463;28;19925;-73
2022/10/07 12:23:27;;;;;;;;;;;16.10;99.90;;;;;;5010169;28;19925;-72
2022/10/07 12:26:24;;;;;;;;;;;16.10;99.90;;;;;;5013685;28;19926;-73
2022/10/07 12:28:56;;;;;;;;;;;16.10;99.90;;;;;;4989090;28;19925;-72
2022/10/07 12:31:30;;;;;;;;;;;16.10;99.90;;;;;;4995046;28;19925;-71
2022/10/07 12:33:57;;;;;;;;;;;16.00;99.90;;;;;;5027300;28;19926;-72
2022/10/07 12:36:30;;;;;;;;;;;16.00;99.90;;;;;;5028126;28;19963;-72
2022/10/07 12:39:03;;;;;;;;;;;16.00;99.90;;;;;;5024369;28;19932;-72
2022/10/07 12:41:35;;;;;;;;;;;16.00;99.90;;;;;;5001776;28;19925;-71
2022/10/07 12:44:21;;;;;;;;;;;16.00;99.90;;;;;;5021815;28;19929;-72
2022/10/07 12:46:59;;;;;;;;;;;16.10;99.90;;;;;;5029470;28;19980;-72
2022/10/07 12:49:48;;;;;;;;;;;16.00;99.90;;;;;;4981116;28;19926;-72
2022/10/07 12:52:39;;;;;;;;;;;15.90;99.90;;;;;;5018014;28;19972;-73
2022/10/07 12:55:18;;;;;;;;;;;16.00;99.90;;;;;;5016726;28;20330;-72
2022/10/07 12:57:53;;;;;;;;;;;16.00;99.90;;;;;;5016538;28;19929;-72
2022/10/07 13:00:27;;;;;;;;;;;15.90;99.90;;;;;;5024510;28;19932;-71
2022/10/07 13:03:17;;;;;;;;;;;15.70;99.90;;;;;;5018274;28;20344;-72
2022/10/07 13:06:08;;;;;;;;;;;15.70;99.90;;;;;;5033628;28;19933;-72
2022/10/07 13:08:40;;;;;;;;;;;15.60;99.90;;;;;;5010575;28;19936;-71
2022/10/07 13:11:30;;;;;;;;;;;15.60;99.90;;;;;;4999559;28;19949;-72
2022/10/07 13:14:06;;;;;;;;;;;15.50;99.90;;;;;;5034256;28;19925;-72
2022/10/07 13:16:56;;;;;;;;;;;15.60;99.90;;;;;;5031563;28;20465;-72
2022/10/07 13:19:31;;;;;;;;;;;15.70;99.90;;;;;;5000154;28;20380;-72
2022/10/07 13:22:11;;;;;;;;;;;15.80;99.90;;;;;;5009806;28;19999;-72
2022/10/07 13:24:48;;;;;;;;;;;15.80;99.90;;;;;;5016013;28;19925;-72
2022/10/07 13:27:25;;;;;;;;;;;15.90;99.90;;;;;;5033585;28;19929;-73
2022/10/07 13:29:58;;;;;;;;;;;16.00;99.90;;;;;;5016717;28;20354;-71
2022/10/07 13:32:31;;;;;;;;;;;16.00;99.90;;;;;;5006443;28;19930;-72
2022/10/07 13:35:21;;;;;;;;;;;16.10;99.90;;;;;;5021789;28;20433;-71
2022/10/07 13:37:53;;;;;;;;;;;16.10;99.90;;;;;;5020353;28;19949;-72
2022/10/07 13:40:24;;;;;;;;;;;16.10;99.90;;;;;;5014345;28;20277;-72
2022/10/07 13:42:58;;;;;;;;;;;16.10;99.90;;;;;;5018948;28;19949;-72
2022/10/07 13:45:26;;;;;;;;;;;16.30;99.90;;;;;;5043973;28;19967;-72
2022/10/07 13:47:57;;;;;;;;;;;16.50;99.90;;;;;;5022370;28;19933;-72
2022/10/07 13:50:29;;;;;;;;;;;16.60;99.90;;;;;;5011532;28;20000;-71
2022/10/07 13:53:01;;;;;;;;;;;16.70;99.90;;;;;;5013983;28;20343;-71
2022/10/07 13:55:34;;;;;;;;;;;16.60;99.90;;;;;;5019944;28;19929;-71
2022/10/07 13:58:05;;;;;;;;;;;16.60;99.90;;;;;;5020641;28;19926;-72
2022/10/07 14:00:33;;;;;;;;;;;16.70;99.90;;;;;;5029066;28;19979;-73
2022/10/07 14:03:12;;;;;;;;;;;16.70;99.90;;;;;;5008858;28;19932;-72
2022/10/07 14:05:48;;;;;;;;;;;16.60;99.90;;;;;;4996123;28;19930;-71
2022/10/07 14:08:20;;;;;;;;;;;16.50;99.90;;;;;;5021045;28;19929;-72
2022/10/07 14:10:52;;;;;;;;;;;16.40;99.90;;;;;;5031968;28;19925;-72
2022/10/07 14:13:26;;;;;;;;;;;16.40;99.90;;;;;;5012134;28;20384;-72
2022/10/07 14:15:58;;;;;;;;;;;16.30;99.90;;;;;;5017741;28;19925;-72
2022/10/07 14:18:30;;;;;;;;;;;16.30;99.90;;;;;;5020614;28;20319;-71
2022/10/07 14:21:09;;;;;;;;;;;16.20;99.90;;;;;;5031520;28;19929;-72
2022/10/07 14:23:41;;;;;;;;;;;16.10;99.90;;;;;;5014597;28;19988;-72
2022/10/07 14:26:16;;;;;;;;;;;16.10;99.90;;;;;;5012636;28;19930;-71
2022/10/07 14:28:48;;;;;;;;;;;16.00;99.90;;;;;;5000746;28;19925;-71
2022/10/07 14:37:23;;;;;;;;;;;15.90;99.90;;;;;;5012119;28;19979;-72
2022/10/07 14:39:55;;;;;;;;;;;15.80;99.90;;;;;;5022744;28;19975;-73
2022/10/07 14:42:39;;;;;;;;;;;15.80;99.90;;;;;;5014379;28;20339;-71
2022/10/07 14:45:14;;;;;;;;;;;15.90;99.90;;;;;;4995556;28;19973;-71
2022/10/07 14:47:47;;;;;;;;;;;15.90;99.90;;;;;;5014917;28;19980;-72
2022/10/07 14:50:19;;;;;;;;;;;15.80;99.90;;;;;;5010994;28;19973;-72
2022/10/07 14:52:51;;;;;;;;;;;15.80;99.90;;;;;;5028071;28;19929;-72
2022/10/07 14:55:24;;;;;;;;;;;15.90;99.90;;;;;;4996028;28;20344;-72
2022/10/07 14:57:55;;;;;;;;;;;15.90;99.90;;;;;;5012421;28;20439;-72
2022/10/07 15:00:30;;;;;;;;;;;15.80;99.90;;;;;;5012274;28;19957;-71
2022/10/07 15:03:02;;;;;;;;;;;15.80;99.90;;;;;;5012600;28;19934;-72
2022/10/07 15:05:34;;;;;;;;;;;15.70;99.90;;;;;;4994247;28;19926;-72
2022/10/07 15:08:07;;;;;;;;;;;15.70;99.90;;;;;;5010499;28;19972;-71
2022/10/07 15:10:42;;;;;;;;;;;15.70;99.90;;;;;;4995962;28;19973;-72
2022/10/07 15:13:14;;;;;;;;;;;15.60;99.90;;;;;;5027171;28;19925;-72
2022/10/07 15:15:46;;;;;;;;;;;15.60;99.90;;;;;;5010583;28;20394;-72
2022/10/07 15:18:18;;;;;;;;;;;15.50;99.90;;;;;;5012373;28;19925;-71
2022/10/07 15:20:56;;;;;;;;;;;15.40;99.90;;;;;;5012610;28;19926;-72
2022/10/07 15:23:29;;;;;;;;;;;15.30;99.90;;;;;;5024655;28;19987;-72